Time;durP1;ratioP1;P1;durP2;ratioP2;P2;SDS_P1;SDS_P2;PMS_P1;PMS_P2;Temp;Humidity;BMP_temperature;BMP_pressure;BME280_temperature;BME280_humidity;BME280_pressure;Samples;Min_cycle;Max_cycle;Signal;HPM_P1;HPM_P2
2024/01/14 00:01:57;;;;;;;64.40;26.77;;;3.10;99.90;;;;;;4989767;28;20030;-65
2024/01/14 00:04:23;;;;;;;65.32;26.35;;;3.10;99.90;;;;;;4999544;28;20030;-66
2024/01/14 00:06:49;;;;;;;66.00;25.80;;;3.10;99.90;;;;;;4999694;28;20046;-64
2024/01/14 00:09:19;;;;;;;62.63;27.00;;;3.10;99.90;;;;;;4998549;28;20082;-66
2024/01/14 00:11:45;;;;;;;64.65;25.88;;;3.00;99.90;;;;;;4999398;28;20402;-64
2024/01/14 00:14:10;;;;;;;65.13;25.88;;;2.90;99.90;;;;;;5014749;28;20043;-65
2024/01/14 00:16:36;;;;;;;65.47;26.05;;;2.80;99.90;;;;;;4998471;28;20092;-65
2024/01/14 00:19:03;;;;;;;71.20;26.83;;;2.70;99.90;;;;;;4998418;28;20410;-65
2024/01/14 00:21:29;;;;;;;61.50;26.00;;;2.70;99.90;;;;;;4999141;28;20345;-66
2024/01/14 00:23:55;;;;;;;67.80;26.63;;;2.80;99.90;;;;;;4999068;28;20354;-65
2024/01/14 00:26:24;;;;;;;66.95;25.95;;;2.70;99.90;;;;;;4998272;28;20030;-65
2024/01/14 00:28:54;;;;;;;58.78;25.65;;;2.60;99.90;;;;;;5014798;28;20448;-63
2024/01/14 00:31:20;;;;;;;59.65;26.45;;;2.50;99.90;;;;;;4998762;28;20321;-64
2024/01/14 00:33:46;;;;;;;69.85;25.40;;;2.20;99.90;;;;;;4998024;28;20100;-64
2024/01/14 00:36:12;;;;;;;55.50;25.58;;;2.10;99.90;;;;;;5014481;28;20030;-63
2024/01/14 00:38:38;;;;;;;60.95;25.95;;;1.90;99.90;;;;;;4998919;28;20424;-64
2024/01/14 00:41:04;;;;;;;59.90;25.05;;;2.00;99.90;;;;;;4998072;28;20037;-64
2024/01/14 00:43:30;;;;;;;68.22;25.83;;;2.00;99.90;;;;;;4998710;28;20049;-64
2024/01/14 00:45:56;;;;;;;65.45;26.42;;;2.10;99.90;;;;;;5014151;28;20042;-64
2024/01/14 00:48:22;;;;;;;65.03;26.83;;;2.10;99.90;;;;;;4997926;28;20425;-63
2024/01/14 00:50:48;;;;;;;63.10;26.77;;;2.10;99.90;;;;;;5014151;28;20124;-64
2024/01/14 00:53:13;;;;;;;64.15;25.63;;;2.10;99.90;;;;;;4998435;28;20042;-64
2024/01/14 00:55:39;;;;;;;61.05;25.02;;;2.00;99.90;;;;;;4998564;28;20045;-67
2024/01/14 00:58:05;;;;;;;64.82;26.05;;;2.10;99.90;;;;;;4998531;28;20103;-66
2024/01/14 01:00:31;;;;;;;61.33;25.27;;;2.20;99.90;;;;;;4998317;28;20041;-67
2024/01/14 01:02:57;;;;;;;70.07;26.38;;;2.40;99.90;;;;;;4998155;28;20045;-66
2024/01/14 01:05:23;;;;;;;62.92;25.52;;;2.60;99.90;;;;;;4997682;28;20413;-64
2024/01/14 01:07:48;;;;;;;62.42;24.65;;;2.50;99.90;;;;;;4998279;28;20062;-65
2024/01/14 01:10:15;;;;;;;63.72;25.58;;;2.60;99.90;;;;;;5013856;28;20065;-68
2024/01/14 01:12:41;;;;;;;60.90;25.17;;;2.60;99.90;;;;;;4998069;28;20294;-66
2024/01/14 01:15:08;;;;;;;60.38;24.90;;;2.70;99.90;;;;;;4998089;28;20041;-68
2024/01/14 01:17:34;;;;;;;61.42;25.60;;;2.80;99.90;;;;;;5013665;28;20030;-64
2024/01/14 01:20:00;;;;;;;58.55;24.55;;;2.70;99.90;;;;;;5013601;28;20029;-67
2024/01/14 01:22:27;;;;;;;61.83;24.60;;;2.70;99.90;;;;;;4998004;28;20390;-64
2024/01/14 01:24:53;;;;;;;59.47;25.30;;;2.60;99.90;;;;;;5013511;28;20030;-64
2024/01/14 01:27:18;;;;;;;63.63;25.40;;;2.60;99.90;;;;;;4997866;28;20096;-64
2024/01/14 01:29:44;;;;;;;65.15;25.33;;;2.30;99.90;;;;;;4997874;28;20030;-64
2024/01/14 01:32:11;;;;;;;57.78;24.00;;;2.10;99.90;;;;;;5013220;28;20050;-62
2024/01/14 01:34:37;;;;;;;65.47;24.67;;;2.10;99.90;;;;;;4997757;28;20038;-63
2024/01/14 01:37:06;;;;;;;59.65;24.77;;;2.10;99.90;;;;;;5013584;28;20032;-63
2024/01/14 01:39:31;;;;;;;62.28;24.42;;;2.10;99.90;;;;;;4997137;28;20048;-65
2024/01/14 01:41:59;;;;;;;56.25;23.70;;;2.10;99.90;;;;;;5013294;28;20297;-64
2024/01/14 01:44:24;;;;;;;68.57;26.58;;;2.20;99.90;;;;;;4997609;28;20042;-64
2024/01/14 01:46:51;;;;;;;57.50;23.88;;;2.20;99.90;;;;;;4997657;28;20337;-65
2024/01/14 01:49:17;;;;;;;60.25;25.30;;;2.40;99.90;;;;;;4997622;28;20042;-66
2024/01/14 01:51:47;;;;;;;61.35;24.80;;;2.60;99.90;;;;;;4996955;28;20030;-66
2024/01/14 01:54:16;;;;;;;54.17;23.70;;;2.60;99.90;;;;;;4997428;28;20030;-65
2024/01/14 01:56:43;;;;;;;61.55;24.92;;;2.60;99.90;;;;;;5013153;28;20102;-64
2024/01/14 01:59:09;;;;;;;59.35;24.30;;;2.40;99.90;;;;;;5013235;28;20031;-65
2024/01/14 02:01:37;;;;;;;59.13;24.52;;;2.30;99.90;;;;;;4997495;28;20456;-65
2024/01/14 02:04:04;;;;;;;54.25;23.67;;;2.30;99.90;;;;;;4996751;28;20038;-64
2024/01/14 02:06:32;;;;;;;53.67;22.98;;;2.20;99.90;;;;;;4997397;28;20073;-64
2024/01/14 02:08:58;;;;;;;53.95;23.30;;;2.10;99.90;;;;;;4997539;28;20030;-64
2024/01/14 02:11:24;;;;;;;52.20;23.20;;;2.10;99.90;;;;;;4997422;28;20038;-66
2024/01/14 02:13:50;;;;;;;58.22;23.20;;;2.20;99.90;;;;;;4996635;28;20064;-65
2024/01/14 02:16:16;;;;;;;63.00;23.52;;;2.30;99.90;;;;;;4999830;28;20305;-65
2024/01/14 02:18:42;;;;;;;55.60;23.65;;;2.30;99.90;;;;;;5001388;28;20394;-65
2024/01/14 02:21:10;;;;;;;58.05;24.42;;;2.30;99.90;;;;;;5016906;28;20034;-64
2024/01/14 02:23:41;;;;;;;55.08;22.80;;;2.30;99.90;;;;;;5016962;28;20034;-65
2024/01/14 02:26:07;;;;;;;59.80;23.55;;;2.40;99.90;;;;;;5001399;28;20042;-67
2024/01/14 02:28:32;;;;;;;54.38;23.08;;;2.30;99.90;;;;;;5001507;28;20297;-67
2024/01/14 02:30:59;;;;;;;55.63;22.38;;;2.30;99.90;;;;;;5000964;28;20038;-65
2024/01/14 02:33:25;;;;;;;57.85;23.25;;;2.30;99.90;;;;;;5001070;28;20080;-65
2024/01/14 02:35:51;;;;;;;55.35;22.45;;;2.50;99.90;;;;;;5001122;28;20122;-65
2024/01/14 02:38:17;;;;;;;53.33;22.42;;;2.50;99.90;;;;;;5001228;28;20346;-67
2024/01/14 02:40:43;;;;;;;49.72;21.33;;;2.60;99.90;;;;;;5016534;28;20060;-65
2024/01/14 02:43:08;;;;;;;52.72;22.48;;;2.50;99.90;;;;;;5016578;28;20421;-65
2024/01/14 02:45:35;;;;;;;55.63;23.13;;;2.50;99.90;;;;;;5000254;28;20027;-65
2024/01/14 02:48:01;;;;;;;53.20;23.00;;;2.50;99.90;;;;;;5000222;28;20034;-64
2024/01/14 02:50:27;;;;;;;56.30;23.50;;;2.50;99.90;;;;;;5000807;28;20054;-64
2024/01/14 02:52:52;;;;;;;58.38;23.65;;;2.50;99.90;;;;;;5000070;28;20309;-63
2024/01/14 02:55:18;;;;;;;54.97;22.38;;;2.40;99.90;;;;;;5000782;28;20030;-64
2024/01/14 02:57:45;;;;;;;52.70;21.58;;;2.40;99.90;;;;;;5000059;28;20045;-65
2024/01/14 03:00:12;;;;;;;52.85;22.73;;;2.40;99.90;;;;;;5000135;28;20290;-64
2024/01/14 03:02:38;;;;;;;58.90;23.77;;;2.30;99.90;;;;;;5000702;28;20030;-65
2024/01/14 03:05:04;;;;;;;50.85;21.75;;;2.30;99.90;;;;;;5000717;28;20042;-64
2024/01/14 03:07:30;;;;;;;54.47;22.80;;;2.20;99.90;;;;;;5016135;28;20394;-64
2024/01/14 03:09:56;;;;;;;52.97;22.67;;;2.20;99.90;;;;;;5016053;28;20117;-66
2024/01/14 03:12:21;;;;;;;53.38;23.13;;;2.20;99.90;;;;;;4999623;28;20172;-65
2024/01/14 03:14:47;;;;;;;54.47;22.42;;;2.30;99.90;;;;;;4999657;28;20062;-65
2024/01/14 03:17:13;;;;;;;51.90;22.15;;;2.40;99.90;;;;;;5015841;28;20084;-64
2024/01/14 03:19:39;;;;;;;51.25;21.25;;;2.30;99.90;;;;;;5000307;28;20041;-64
2024/01/14 03:22:05;;;;;;;53.55;21.95;;;2.50;99.90;;;;;;4999509;28;20341;-63
2024/01/14 03:24:30;;;;;;;56.90;23.38;;;2.30;99.90;;;;;;4999506;28;20348;-64
2024/01/14 03:26:56;;;;;;;51.45;21.58;;;2.10;99.90;;;;;;4999406;28;20035;-64
2024/01/14 03:29:22;;;;;;;57.38;22.40;;;2.10;99.90;;;;;;5000192;28;20100;-64
2024/01/14 03:31:48;;;;;;;53.20;22.52;;;2.10;99.90;;;;;;4999898;28;20305;-64
2024/01/14 03:34:14;;;;;;;50.05;21.73;;;2.20;99.90;;;;;;4999290;28;20038;-64
2024/01/14 03:36:39;;;;;;;60.70;24.15;;;2.40;99.90;;;;;;4999433;28;20041;-65
2024/01/14 03:39:06;;;;;;;58.30;22.65;;;2.30;99.90;;;;;;4999369;28;20407;-63
2024/01/14 03:41:32;;;;;;;61.67;22.63;;;2.10;99.90;;;;;;4999318;28;20287;-64
2024/01/14 03:43:58;;;;;;;53.63;22.50;;;2.00;99.90;;;;;;5015460;28;20037;-65
2024/01/14 03:46:25;;;;;;;55.80;22.45;;;2.00;99.90;;;;;;4999411;28;20116;-66
2024/01/14 03:48:51;;;;;;;50.13;22.02;;;2.10;99.90;;;;;;4999990;28;20046;-64
2024/01/14 03:51:17;;;;;;;54.55;22.48;;;2.00;99.90;;;;;;4999727;28;20306;-68
2024/01/14 03:53:42;;;;;;;54.50;22.38;;;2.10;99.90;;;;;;4999705;28;20309;-64
2024/01/14 03:56:08;;;;;;;48.92;21.70;;;2.00;99.90;;;;;;4999000;28;20034;-65
2024/01/14 03:58:34;;;;;;;51.53;21.70;;;2.00;99.90;;;;;;4999588;28;20034;-66
2024/01/14 04:01:00;;;;;;;50.85;22.58;;;2.00;99.90;;;;;;4999668;28;20038;-68
2024/01/14 04:03:26;;;;;;;56.20;23.80;;;2.20;99.90;;;;;;4999500;28;20034;-65
2024/01/14 04:05:51;;;;;;;51.78;21.55;;;2.30;99.90;;;;;;4998928;28;20026;-65
2024/01/14 04:08:17;;;;;;;52.90;21.27;;;2.40;99.90;;;;;;5015051;28;20038;-65
2024/01/14 04:10:43;;;;;;;53.95;22.58;;;2.30;99.90;;;;;;4998791;28;20030;-65
2024/01/14 04:13:09;;;;;;;56.95;22.67;;;2.30;99.90;;;;;;4998544;28;20042;-65
2024/01/14 04:15:35;;;;;;;47.35;20.73;;;2.10;99.90;;;;;;4999197;28;20406;-63
2024/01/14 04:18:01;;;;;;;47.05;20.63;;;2.30;99.90;;;;;;4998562;28;20058;-64
2024/01/14 04:20:27;;;;;;;50.55;20.17;;;2.20;99.90;;;;;;5014876;28;20306;-64
2024/01/14 04:22:53;;;;;;;50.72;19.90;;;2.10;99.90;;;;;;4999234;28;20090;-64
2024/01/14 04:25:19;;;;;;;48.13;21.00;;;2.00;99.90;;;;;;4998482;28;20065;-63
2024/01/14 04:27:44;;;;;;;49.20;20.55;;;1.90;99.90;;;;;;4998416;28;20034;-65
2024/01/14 04:30:10;;;;;;;48.70;21.23;;;1.90;99.90;;;;;;4999044;28;20038;-64
2024/01/14 04:32:36;;;;;;;51.20;20.40;;;1.90;99.90;;;;;;4998732;28;20071;-63
2024/01/14 04:35:02;;;;;;;49.80;21.08;;;1.90;99.90;;;;;;4998363;28;20146;-63
2024/01/14 04:37:28;;;;;;;51.25;20.60;;;1.90;99.90;;;;;;5014059;28;20043;-64
2024/01/14 04:39:55;;;;;;;50.67;21.95;;;1.90;99.90;;;;;;4998872;28;20038;-63
2024/01/14 04:42:22;;;;;;;44.17;19.65;;;1.80;99.90;;;;;;4998531;28;20413;-63
2024/01/14 04:44:47;;;;;;;52.20;20.52;;;1.80;99.90;;;;;;5014314;28;20038;-64
2024/01/14 04:47:13;;;;;;;50.15;20.65;;;1.90;99.90;;;;;;4998065;28;20396;-65
2024/01/14 04:49:39;;;;;;;50.88;20.88;;;2.20;99.90;;;;;;4997991;28;20092;-65
2024/01/14 04:52:05;;;;;;;51.53;20.27;;;2.20;99.90;;;;;;5014146;28;20038;-64
2024/01/14 04:54:31;;;;;;;44.83;19.42;;;2.20;99.90;;;;;;4997747;28;20104;-64
2024/01/14 04:56:57;;;;;;;43.92;19.50;;;2.20;99.90;;;;;;5014100;28;20301;-64
2024/01/14 04:59:23;;;;;;;47.60;19.52;;;2.20;99.90;;;;;;4998440;28;20034;-64
2024/01/14 05:01:49;;;;;;;45.22;19.35;;;2.20;99.90;;;;;;4998396;28;20054;-65
2024/01/14 05:04:15;;;;;;;49.15;19.98;;;2.20;99.90;;;;;;4997695;28;20322;-64
2024/01/14 05:06:41;;;;;;;45.80;19.45;;;2.20;99.90;;;;;;4997566;28;20030;-63
2024/01/14 05:09:07;;;;;;;48.97;19.33;;;2.10;99.90;;;;;;4997647;28;20034;-63
2024/01/14 05:11:33;;;;;;;52.80;20.83;;;2.00;99.90;;;;;;4998220;28;20282;-63
2024/01/14 05:13:59;;;;;;;44.17;19.45;;;1.80;99.90;;;;;;4998272;28;20045;-64
2024/01/14 05:16:25;;;;;;;47.35;19.55;;;1.90;99.90;;;;;;4998227;28;20035;-63
2024/01/14 05:18:50;;;;;;;50.25;20.30;;;1.90;99.90;;;;;;4997593;28;20029;-63
2024/01/14 05:21:17;;;;;;;49.00;19.75;;;1.90;99.90;;;;;;5013656;28;20041;-63
2024/01/14 05:23:43;;;;;;;49.88;19.85;;;2.10;99.90;;;;;;4998072;28;20030;-64
2024/01/14 05:26:10;;;;;;;48.88;19.83;;;2.10;99.90;;;;;;4998008;28;20394;-63
2024/01/14 05:28:35;;;;;;;50.95;19.27;;;2.20;99.90;;;;;;5013609;28;20041;-63
2024/01/14 05:31:01;;;;;;;50.50;19.50;;;2.00;99.90;;;;;;4997090;28;20405;-64
2024/01/14 05:33:27;;;;;;;46.40;19.13;;;2.00;99.90;;;;;;4997110;28;20102;-64
2024/01/14 05:35:53;;;;;;;51.28;20.13;;;2.00;99.90;;;;;;4996965;28;20038;-63
2024/01/14 05:38:19;;;;;;;43.85;19.42;;;2.00;99.90;;;;;;4997075;28;20073;-63
2024/01/14 05:40:45;;;;;;;50.58;20.00;;;1.90;99.90;;;;;;4997461;28;20034;-63
2024/01/14 05:43:11;;;;;;;47.25;20.00;;;1.90;99.90;;;;;;5013421;28;20041;-63
2024/01/14 05:45:36;;;;;;;48.55;18.83;;;1.90;99.90;;;;;;4997673;28;20112;-63
2024/01/14 05:48:02;;;;;;;51.50;18.63;;;1.90;99.90;;;;;;5013268;28;20305;-66
2024/01/14 05:50:28;;;;;;;52.83;19.70;;;1.90;99.90;;;;;;4996089;28;20121;-62
2024/01/14 05:52:54;;;;;;;46.80;19.65;;;1.80;99.90;;;;;;4997530;28;20133;-64
2024/01/14 05:55:20;;;;;;;52.72;21.00;;;1.80;99.90;;;;;;4997576;28;20092;-63
2024/01/14 05:57:46;;;;;;;47.95;20.10;;;1.80;99.90;;;;;;4996784;28;20031;-62
2024/01/14 06:00:13;;;;;;;50.67;20.05;;;1.80;99.90;;;;;;5013076;28;20034;-63
2024/01/14 06:02:39;;;;;;;47.35;20.48;;;1.80;99.90;;;;;;4997461;28;20027;-63
2024/01/14 06:05:05;;;;;;;46.70;19.85;;;1.80;99.90;;;;;;4996580;28;20038;-63
2024/01/14 06:07:31;;;;;;;48.55;21.42;;;1.80;99.90;;;;;;4996737;28;20050;-62
2024/01/14 06:09:57;;;;;;;47.55;19.63;;;1.90;99.90;;;;;;4996654;28;20097;-63
2024/01/14 06:12:23;;;;;;;53.80;21.10;;;1.70;99.90;;;;;;4996708;28;20030;-66
2024/01/14 06:14:48;;;;;;;48.88;20.83;;;1.70;99.90;;;;;;4997282;28;20041;-63
2024/01/14 06:17:15;;;;;;;49.55;20.33;;;1.80;99.90;;;;;;5012852;28;20382;-63
2024/01/14 06:19:42;;;;;;;59.25;22.33;;;1.90;99.90;;;;;;4996828;28;20062;-63
2024/01/14 06:22:07;;;;;;;49.70;21.40;;;1.80;99.90;;;;;;4996659;28;20031;-60
2024/01/14 06:24:33;;;;;;;56.17;21.83;;;1.80;99.90;;;;;;4980479;28;20030;-62
2024/01/14 06:26:59;;;;;;;57.33;20.65;;;1.80;99.90;;;;;;4997327;28;20034;-63
2024/01/14 06:29:25;;;;;;;47.35;20.73;;;1.80;99.90;;;;;;4997246;28;20091;-63
2024/01/14 06:31:50;;;;;;;48.17;19.80;;;1.80;99.90;;;;;;4996291;28;20054;-64
2024/01/14 06:34:16;;;;;;;54.00;21.42;;;1.90;99.90;;;;;;4996255;28;20031;-62
2024/01/14 06:36:42;;;;;;;52.38;20.63;;;2.00;99.90;;;;;;5012718;28;20117;-64
2024/01/14 06:39:08;;;;;;;50.85;20.50;;;2.00;99.90;;;;;;4997102;28;20038;-64
2024/01/14 06:41:34;;;;;;;51.78;21.30;;;1.70;99.90;;;;;;4996631;28;20433;-62
2024/01/14 06:44:00;;;;;;;48.78;20.75;;;1.80;99.90;;;;;;4997140;28;20030;-62
2024/01/14 06:46:25;;;;;;;51.40;20.85;;;1.80;99.90;;;;;;4997053;28;20035;-63
2024/01/14 06:48:51;;;;;;;51.40;20.33;;;1.80;99.90;;;;;;5012552;28;20045;-62
2024/01/14 06:51:17;;;;;;;53.63;21.08;;;1.80;99.90;;;;;;4996980;28;20366;-62
2024/01/14 06:53:43;;;;;;;52.55;21.02;;;1.70;99.90;;;;;;4996915;28;20049;-62
2024/01/14 06:56:09;;;;;;;50.25;19.85;;;1.60;99.90;;;;;;4996936;28;20390;-63
2024/01/14 06:58:35;;;;;;;50.25;20.40;;;1.60;99.90;;;;;;4996970;28;20022;-63
2024/01/14 07:01:02;;;;;;;50.08;19.75;;;1.70;99.90;;;;;;4997158;28;20056;-62
2024/01/14 07:03:27;;;;;;;50.55;19.02;;;1.70;99.90;;;;;;5016215;28;20125;-62
2024/01/14 07:05:53;;;;;;;50.25;19.80;;;1.60;99.90;;;;;;5000653;28;20369;-62
2024/01/14 07:08:19;;;;;;;49.00;20.05;;;1.60;99.90;;;;;;5000619;28;20050;-62
2024/01/14 07:10:45;;;;;;;56.50;21.42;;;1.50;99.90;;;;;;5000645;28;20077;-63
2024/01/14 07:13:11;;;;;;;44.17;19.92;;;1.60;99.90;;;;;;4999654;28;20301;-63
2024/01/14 07:15:37;;;;;;;48.78;20.20;;;1.70;99.90;;;;;;5015895;28;20022;-62
2024/01/14 07:18:04;;;;;;;48.83;20.25;;;1.60;99.90;;;;;;5000460;28;20110;-63
2024/01/14 07:20:30;;;;;;;52.75;20.35;;;1.60;99.90;;;;;;5015771;28;20041;-63
2024/01/14 07:22:56;;;;;;;56.30;21.08;;;1.70;99.90;;;;;;5000268;28;20042;-63
2024/01/14 07:25:21;;;;;;;52.88;20.00;;;1.70;99.90;;;;;;4999425;28;20042;-66
2024/01/14 07:27:48;;;;;;;47.00;19.40;;;1.90;99.90;;;;;;5000365;28;20084;-64
2024/01/14 07:30:17;;;;;;;52.28;21.05;;;1.90;99.90;;;;;;4999935;28;20137;-64
2024/01/14 07:32:43;;;;;;;46.53;19.50;;;1.90;99.90;;;;;;5015588;28;20426;-65
2024/01/14 07:35:09;;;;;;;53.05;19.95;;;1.90;99.90;;;;;;4999469;28;20038;-63
2024/01/14 07:37:35;;;;;;;48.22;20.25;;;1.90;99.90;;;;;;4999214;28;20293;-65
2024/01/14 07:40:01;;;;;;;55.75;20.98;;;1.80;99.90;;;;;;5000152;28;20030;-63
2024/01/14 07:42:27;;;;;;;48.75;19.35;;;1.70;99.90;;;;;;4983010;28;20046;-64
2024/01/14 07:44:53;;;;;;;49.53;20.45;;;1.70;99.90;;;;;;5000020;28;20045;-62
2024/01/14 07:47:23;;;;;;;53.00;20.50;;;1.60;99.90;;;;;;4999134;28;20098;-64
2024/01/14 07:49:49;;;;;;;51.60;19.80;;;1.70;99.90;;;;;;5015355;28;20042;-66
2024/01/14 07:52:16;;;;;;;48.75;19.58;;;1.70;99.90;;;;;;5015303;28;20378;-63
2024/01/14 07:54:43;;;;;;;48.85;19.80;;;1.60;99.90;;;;;;4999449;28;20034;-62
2024/01/14 07:57:09;;;;;;;49.30;20.40;;;1.60;99.90;;;;;;4998584;28;20057;-63
2024/01/14 07:59:35;;;;;;;48.38;18.60;;;1.60;99.90;;;;;;4999275;28;20293;-64
2024/01/14 08:02:02;;;;;;;46.45;19.15;;;1.60;99.90;;;;;;4998498;28;20030;-65
2024/01/14 08:04:27;;;;;;;49.08;19.35;;;1.70;99.90;;;;;;5014787;28;20405;-65
2024/01/14 08:06:53;;;;;;;53.55;20.85;;;1.70;99.90;;;;;;5014873;28;20111;-65
2024/01/14 08:09:20;;;;;;;49.70;20.35;;;1.70;99.90;;;;;;4998658;28;20193;-68
2024/01/14 08:11:46;;;;;;;48.88;19.33;;;1.60;99.90;;;;;;4998997;28;20128;-66
2024/01/14 08:14:11;;;;;;;49.92;19.80;;;1.70;99.90;;;;;;4997752;28;20117;-65
2024/01/14 08:16:37;;;;;;;48.00;18.60;;;1.80;99.90;;;;;;4999302;28;20033;-66
2024/01/14 08:19:03;;;;;;;55.63;20.40;;;1.70;99.90;;;;;;5015203;28;20058;-66
2024/01/14 08:21:29;;;;;;;49.10;19.40;;;1.80;99.90;;;;;;4998545;28;20108;-67
2024/01/14 08:23:55;;;;;;;47.80;19.35;;;2.00;99.90;;;;;;4998486;28;20045;-64
2024/01/14 08:26:21;;;;;;;49.53;21.33;;;1.90;99.90;;;;;;5014664;28;20057;-64
2024/01/14 08:28:46;;;;;;;47.42;20.10;;;1.80;99.90;;;;;;4998428;28;20038;-64
2024/01/14 08:31:12;;;;;;;46.47;19.35;;;1.70;99.90;;;;;;5014651;28;20050;-64
2024/01/14 08:33:41;;;;;;;45.83;18.83;;;1.70;99.90;;;;;;5014483;28;20049;-64
2024/01/14 08:36:09;;;;;;;46.63;19.90;;;1.90;99.90;;;;;;5014482;28;20125;-64
2024/01/14 08:38:35;;;;;;;50.97;20.30;;;1.70;99.90;;;;;;4998145;28;20345;-64
2024/01/14 08:41:01;;;;;;;55.75;21.45;;;1.80;99.90;;;;;;4998017;28;20066;-67
2024/01/14 08:43:27;;;;;;;50.28;21.25;;;1.90;99.90;;;;;;5014285;28;20030;-64
2024/01/14 08:45:53;;;;;;;48.47;20.17;;;1.80;99.90;;;;;;4998705;28;20108;-65
2024/01/14 08:48:18;;;;;;;46.78;19.88;;;1.70;99.90;;;;;;4998645;28;20348;-66
2024/01/14 08:50:44;;;;;;;53.15;20.77;;;1.70;99.90;;;;;;4998260;28;20055;-65
2024/01/14 08:53:10;;;;;;;48.63;21.10;;;1.70;99.90;;;;;;4997862;28;20301;-64
2024/01/14 08:55:36;;;;;;;51.70;21.52;;;1.80;99.90;;;;;;4997927;28;20110;-64
2024/01/14 08:58:01;;;;;;;50.72;20.10;;;1.70;99.90;;;;;;5013969;28;20038;-62
2024/01/14 09:00:27;;;;;;;48.38;20.98;;;1.70;99.90;;;;;;4997747;28;20042;-63
2024/01/14 09:02:53;;;;;;;46.60;19.13;;;1.70;99.90;;;;;;4998439;28;20164;-63
2024/01/14 09:05:19;;;;;;;49.03;20.20;;;1.70;99.90;;;;;;4997644;28;20348;-63
2024/01/14 09:07:45;;;;;;;46.33;20.80;;;1.80;99.90;;;;;;5013634;28;20026;-67
2024/01/14 09:10:10;;;;;;;52.28;20.30;;;1.80;99.90;;;;;;4998145;28;20298;-64
2024/01/14 09:12:36;;;;;;;50.45;20.77;;;1.80;99.90;;;;;;4998196;28;20100;-64
2024/01/14 09:15:02;;;;;;;51.00;21.13;;;1.90;99.90;;;;;;4997583;28;20048;-64
2024/01/14 09:17:28;;;;;;;47.92;20.80;;;1.80;99.90;;;;;;4998102;28;20521;-64
2024/01/14 09:19:54;;;;;;;53.30;20.90;;;1.80;99.90;;;;;;4997424;28;20151;-65
2024/01/14 09:22:20;;;;;;;46.60;19.80;;;1.90;99.90;;;;;;4998063;28;20035;-64
2024/01/14 09:24:46;;;;;;;52.95;21.67;;;2.00;99.90;;;;;;4997880;28;20039;-65
2024/01/14 09:27:13;;;;;;;52.67;21.08;;;2.20;99.90;;;;;;4997968;28;20722;-64
2024/01/14 09:29:40;;;;;;;48.10;21.55;;;2.00;99.90;;;;;;4997959;28;20472;-64
2024/01/14 09:32:05;;;;;;;48.83;21.20;;;2.00;99.90;;;;;;4996994;28;20146;-65
2024/01/14 09:34:31;;;;;;;53.85;20.88;;;2.10;99.90;;;;;;4996824;28;20042;-65
2024/01/14 09:36:57;;;;;;;51.63;22.00;;;2.30;99.90;;;;;;4997084;28;20030;-65
2024/01/14 09:39:23;;;;;;;52.70;22.63;;;2.30;99.90;;;;;;5013475;28;20400;-65
2024/01/14 09:42:04;;;;;;;45.65;21.02;;;2.40;99.90;;;;;;4997785;28;20054;-64
2024/01/14 09:44:30;;;;;;;50.78;22.08;;;2.30;99.90;;;;;;4997771;28;20104;-64
2024/01/14 09:46:58;;;;;;;45.92;19.95;;;2.10;99.90;;;;;;4996870;28;20398;-64
2024/01/14 09:49:23;;;;;;;48.05;20.38;;;2.10;99.90;;;;;;4996919;28;20038;-63
2024/01/14 09:51:50;;;;;;;52.90;21.83;;;1.90;99.90;;;;;;4996901;28;20462;-62
2024/01/14 09:54:16;;;;;;;47.70;20.52;;;1.80;99.90;;;;;;4997415;28;20034;-63
2024/01/14 09:56:44;;;;;;;45.30;20.25;;;1.80;99.90;;;;;;4995581;28;20029;-62
2024/01/14 09:59:09;;;;;;;52.20;21.55;;;1.80;99.90;;;;;;5012817;28;20022;-63
2024/01/14 10:01:37;;;;;;;48.28;20.05;;;2.00;99.90;;;;;;4996448;28;20038;-62
2024/01/14 10:04:06;;;;;;;50.05;21.10;;;2.00;99.90;;;;;;4996377;28;20118;-62
2024/01/14 10:06:31;;;;;;;48.90;21.75;;;2.10;99.90;;;;;;4980604;28;20261;-62
2024/01/14 10:08:58;;;;;;;52.83;21.50;;;1.90;99.90;;;;;;4997311;28;20485;-61
2024/01/14 10:11:24;;;;;;;49.65;20.20;;;1.80;99.90;;;;;;4997376;28;20038;-63
2024/01/14 10:13:50;;;;;;;52.97;21.20;;;1.80;99.90;;;;;;4997247;28;20301;-62
2024/01/14 10:16:17;;;;;;;48.97;20.42;;;1.80;99.90;;;;;;4980495;28;20039;-62
2024/01/14 10:18:43;;;;;;;46.03;20.40;;;1.80;99.90;;;;;;4997247;28;20034;-62
2024/01/14 10:21:09;;;;;;;45.90;20.67;;;1.80;99.90;;;;;;4997318;28;20026;-64
2024/01/14 10:23:39;;;;;;;51.00;20.23;;;1.80;99.90;;;;;;4996422;28;20402;-63
2024/01/14 10:26:06;;;;;;;47.03;19.70;;;1.90;99.90;;;;;;4997366;28;20049;-63
2024/01/14 10:28:36;;;;;;;49.55;21.15;;;2.10;99.90;;;;;;4980386;28;20136;-63
2024/01/14 10:31:03;;;;;;;45.63;19.70;;;2.00;99.90;;;;;;4996350;28;20121;-62
2024/01/14 10:33:33;;;;;;;53.17;21.15;;;1.90;99.90;;;;;;4995447;28;20130;-63
2024/01/14 10:36:00;;;;;;;45.08;20.02;;;1.90;99.90;;;;;;4997527;28;20046;-63
2024/01/14 10:38:26;;;;;;;52.03;20.80;;;2.00;99.90;;;;;;5002685;28;20030;-63
2024/01/14 10:40:52;;;;;;;44.22;19.13;;;2.20;99.90;;;;;;5001146;28;20085;-63
2024/01/14 10:43:23;;;;;;;42.72;18.88;;;2.10;99.90;;;;;;5000873;28;20052;-63
2024/01/14 10:45:50;;;;;;;42.13;19.45;;;2.20;99.90;;;;;;5000251;28;20034;-66
2024/01/14 10:48:22;;;;;;;46.20;18.75;;;2.20;99.90;;;;;;5016356;28;20110;-65
2024/01/14 10:50:56;;;;;;;41.75;18.38;;;2.30;99.90;;;;;;5000838;28;20045;-63
2024/01/14 10:53:24;;;;;;;46.35;19.08;;;2.20;99.90;;;;;;5000677;28;20073;-63
2024/01/14 10:56:05;;;;;;;38.15;18.05;;;2.00;99.90;;;;;;5016331;28;20073;-64
2024/01/14 10:58:36;;;;;;;43.42;17.77;;;1.90;99.90;;;;;;5000711;28;20073;-62
2024/01/14 11:01:06;;;;;;;38.78;18.60;;;2.00;99.90;;;;;;5000764;28;20033;-63
2024/01/14 11:03:33;;;;;;;36.58;17.38;;;1.90;99.90;;;;;;5000589;28;20027;-62
2024/01/14 11:05:59;;;;;;;44.80;18.85;;;2.00;99.90;;;;;;5000741;28;20331;-62
2024/01/14 11:08:26;;;;;;;40.90;17.52;;;2.00;99.90;;;;;;5000475;28;20081;-62
2024/01/14 11:10:54;;;;;;;44.60;18.50;;;2.10;99.90;;;;;;5000403;28;20356;-62
2024/01/14 11:13:45;;;;;;;44.65;18.27;;;2.00;99.90;;;;;;5000309;28;20077;-68
2024/01/14 11:16:23;;;;;;;39.63;17.48;;;2.00;99.90;;;;;;4999720;28;20121;-63
2024/01/14 11:18:48;;;;;;;46.25;17.83;;;2.20;99.90;;;;;;5000366;28;20077;-64
2024/01/14 11:21:33;;;;;;;38.95;18.80;;;2.50;99.90;;;;;;4999627;28;20037;-63
2024/01/14 11:23:59;;;;;;;36.78;17.30;;;2.60;99.90;;;;;;5000206;28;20106;-63
2024/01/14 11:26:26;;;;;;;33.65;17.23;;;2.70;99.90;;;;;;4999424;28;20046;-64
2024/01/14 11:28:54;;;;;;;36.28;16.70;;;2.60;99.90;;;;;;5000025;28;20045;-64
2024/01/14 11:31:21;;;;;;;37.13;16.05;;;2.70;99.90;;;;;;4999327;28;20113;-64
2024/01/14 11:33:46;;;;;;;37.22;17.10;;;2.50;99.90;;;;;;4999910;28;20109;-63
2024/01/14 11:36:33;;;;;;;35.15;16.55;;;2.50;99.90;;;;;;4999310;28;20034;-62
2024/01/14 11:39:05;;;;;;;38.03;16.65;;;2.50;99.90;;;;;;4999825;28;20045;-63
2024/01/14 11:41:35;;;;;;;26.65;11.82;;;2.40;99.90;;;;;;4999892;28;20037;-64
2024/01/14 11:44:11;;;;;;;34.20;16.50;;;2.40;99.90;;;;;;4999905;28;20042;-64
2024/01/14 11:46:42;;;;;;;36.90;17.08;;;2.50;99.90;;;;;;4998791;28;20034;-67
2024/01/14 11:49:10;;;;;;;37.05;16.40;;;2.60;99.90;;;;;;4998125;28;20049;-65
2024/01/14 11:51:43;;;;;;;32.72;15.93;;;2.50;99.90;;;;;;4999203;28;20445;-64
2024/01/14 11:54:10;;;;;;;34.67;15.73;;;2.40;99.90;;;;;;4999587;28;20349;-63
2024/01/14 11:56:36;;;;;;;38.28;17.23;;;2.30;99.90;;;;;;4999711;28;20065;-63
2024/01/14 11:59:09;;;;;;;39.05;17.58;;;2.40;99.90;;;;;;4999602;28;20019;-64
2024/01/14 12:01:39;;;;;;;33.17;15.43;;;2.50;99.90;;;;;;4998845;28;20050;-64
2024/01/14 12:04:10;;;;;;;36.33;17.38;;;2.40;99.90;;;;;;4999595;28;20037;-63
2024/01/14 12:06:49;;;;;;;38.05;16.38;;;2.50;99.90;;;;;;4999623;28;20034;-62
2024/01/14 12:09:17;;;;;;;36.67;16.95;;;2.30;99.90;;;;;;4998609;28;20063;-62
2024/01/14 12:11:43;;;;;;;36.40;17.25;;;2.20;99.90;;;;;;4999339;28;20533;-64
2024/01/14 12:14:10;;;;;;;38.33;18.05;;;2.20;99.90;;;;;;4982322;28;20306;-65
2024/01/14 12:16:38;;;;;;;43.08;17.70;;;2.20;99.90;;;;;;4982349;28;20184;-65
2024/01/14 12:19:17;;;;;;;39.83;16.83;;;2.20;99.90;;;;;;4998428;28;20036;-63
2024/01/14 12:21:43;;;;;;;39.22;17.42;;;2.30;99.90;;;;;;4998727;28;20034;-65
2024/01/14 12:24:11;;;;;;;40.08;16.15;;;2.30;99.90;;;;;;4982281;28;20263;-62
2024/01/14 12:26:37;;;;;;;39.80;17.42;;;2.10;99.90;;;;;;4998492;28;20031;-64
2024/01/14 12:29:04;;;;;;;42.50;18.15;;;2.00;99.90;;;;;;4999133;28;20105;-63
2024/01/14 12:31:32;;;;;;;37.63;16.83;;;2.00;99.90;;;;;;4998292;28;20333;-65
2024/01/14 12:34:04;;;;;;;38.50;16.90;;;1.90;99.90;;;;;;4999038;28;20086;-63